Terminal Aerodrome Forecast
Issued by NWS

Home | Current Version | Previous Version | Text Only | Print | Product List | Glossary On
Versions: 1 2 3 4 5 6 7 8 9 10 11 12 13 14 15 16 17
000
FTUS46 KLOX 300534 CCB
TAFBUR
TAF COR
KBUR 300534Z 3006/0106 14007KT P6SM SCT250
     FM300630 15006KT P6SM OVC012
     FM300800 15006KT P6SM OVC017
     FM301200 14006KT 6SM -DZ BR BKN011 OVC022
     FM301700 16008KT P6SM SCT030 SCT060
     FM302000 17012KT P6SM SCT030 SCT060
     FM010300 16008KT P6SM FEW015=

USA.gov is the U.S. government's official web portal to all federal, state and local government web resources and services.